Time;durP1;ratioP1;P1;durP2;ratioP2;P2;SDS_P1;SDS_P2;PMS_P1;PMS_P2;Temp;Humidity;BMP_temperature;BMP_pressure;BME280_temperature;BME280_humidity;BME280_pressure;Samples;Min_cycle;Max_cycle;Signal;HPM_P1;HPM_P2
2021/06/24 00:02:16;;;;;;;10.00;3.90;;;15.20;99.90;;;;;;4375249;32;20221;-59
2021/06/24 00:04:43;;;;;;;8.17;3.90;;;15.20;99.90;;;;;;4377845;32;20160;-60
2021/06/24 00:07:10;;;;;;;6.33;3.90;;;15.20;99.90;;;;;;4381562;32;20215;-61
2021/06/24 00:09:38;;;;;;;7.73;4.27;;;15.20;99.90;;;;;;4390109;32;20157;-61
2021/06/24 00:12:05;;;;;;;8.07;4.17;;;15.20;99.90;;;;;;4389714;32;20156;-62
2021/06/24 00:14:32;;;;;;;5.23;3.93;;;15.20;99.90;;;;;;4382410;32;20614;-61
2021/06/24 00:16:59;;;;;;;6.27;4.33;;;15.10;99.90;;;;;;4383889;32;20156;-61
2021/06/24 00:19:27;;;;;;;6.93;4.87;;;15.10;99.90;;;;;;4377554;32;20191;-61
2021/06/24 00:21:54;;;;;;;7.33;3.80;;;15.10;99.90;;;;;;4376201;32;20281;-61
2021/06/24 00:24:21;;;;;;;7.17;4.40;;;15.10;99.90;;;;;;4386406;32;20207;-61
2021/06/24 00:26:49;;;;;;;6.63;4.20;;;15.10;99.90;;;;;;4384927;32;20160;-60
2021/06/24 00:29:16;;;;;;;8.10;4.43;;;15.10;99.90;;;;;;4375031;32;20595;-61
2021/06/24 00:31:43;;;;;;;7.63;3.70;;;15.00;99.90;;;;;;4384143;32;20175;-61
2021/06/24 00:34:10;;;;;;;5.37;3.43;;;15.00;99.90;;;;;;4384339;32;20176;-61
2021/06/24 00:36:37;;;;;;;7.60;4.83;;;15.00;99.90;;;;;;4390220;32;20144;-60
2021/06/24 00:39:04;;;;;;;13.20;4.97;;;15.00;99.90;;;;;;4382367;32;20156;-60
2021/06/24 00:41:32;;;;;;;6.87;3.90;;;14.90;99.90;;;;;;4385038;32;20172;-61
2021/06/24 00:44:00;;;;;;;6.43;4.03;;;14.90;99.90;;;;;;4385310;32;20156;-60
2021/06/24 00:46:29;;;;;;;8.23;4.37;;;15.00;99.90;;;;;;4389238;32;20156;-60
2021/06/24 00:48:57;;;;;;;7.87;3.77;;;14.90;99.90;;;;;;4384419;32;20465;-60
2021/06/24 00:51:24;;;;;;;8.87;3.97;;;14.80;99.90;;;;;;4374675;32;20149;-61
2021/06/24 00:53:51;;;;;;;6.40;4.47;;;14.70;99.90;;;;;;4378326;32;20170;-61
2021/06/24 00:56:27;;;;;;;9.10;3.90;;;14.70;99.90;;;;;;4379971;32;20213;-61
2021/06/24 00:58:54;;;;;;;7.07;3.90;;;14.70;99.90;;;;;;4387773;32;20159;-61
2021/06/24 01:01:24;;;;;;;7.07;4.00;;;14.70;99.90;;;;;;4387288;32;20175;-62
2021/06/24 01:03:51;;;;;;;9.77;4.53;;;14.80;99.90;;;;;;4389790;32;20629;-61
2021/06/24 01:06:19;;;;;;;5.30;3.50;;;14.70;99.90;;;;;;4385530;32;20174;-60
2021/06/24 01:08:46;;;;;;;6.67;4.50;;;14.80;99.90;;;;;;4377277;32;20183;-61
2021/06/24 01:11:17;;;;;;;6.07;3.90;;;14.80;99.90;;;;;;4374929;32;20574;-61
2021/06/24 01:13:45;;;;;;;7.33;4.23;;;14.70;99.90;;;;;;4386171;32;20619;-61
2021/06/24 01:16:12;;;;;;;9.03;3.70;;;14.60;99.90;;;;;;4374316;32;20178;-61
2021/06/24 01:18:40;;;;;;;8.03;3.83;;;14.60;99.90;;;;;;4388359;32;20182;-60
2021/06/24 01:21:07;;;;;;;4.87;3.87;;;14.60;99.90;;;;;;4390398;32;20588;-60
2021/06/24 01:23:41;;;;;;;6.87;3.73;;;14.60;99.90;;;;;;4376598;32;20157;-62
2021/06/24 01:26:09;;;;;;;10.47;4.47;;;14.60;99.90;;;;;;4386798;32;20496;-62
2021/06/24 01:28:36;;;;;;;7.53;4.00;;;14.60;99.90;;;;;;4384250;32;20148;-61
2021/06/24 01:31:03;;;;;;;4.87;3.23;;;14.60;99.90;;;;;;4381087;32;20192;-62
2021/06/24 01:33:31;;;;;;;6.87;3.70;;;14.70;99.90;;;;;;4380724;32;20183;-61
2021/06/24 01:36:00;;;;;;;8.50;4.03;;;14.60;99.90;;;;;;4388134;32;20164;-61
2021/06/24 01:38:28;;;;;;;8.37;3.60;;;14.70;99.90;;;;;;4385894;32;20632;-60
2021/06/24 01:40:56;;;;;;;6.23;3.73;;;14.60;99.90;;;;;;4378218;32;20233;-60
2021/06/24 01:43:23;;;;;;;10.53;3.80;;;14.60;99.90;;;;;;4387924;32;20172;-61
2021/06/24 01:45:52;;;;;;;9.63;4.13;;;14.60;99.90;;;;;;4385095;32;20201;-60
2021/06/24 01:48:20;;;;;;;7.67;4.40;;;14.60;99.90;;;;;;4383727;32;20501;-61
2021/06/24 01:50:47;;;;;;;10.80;4.47;;;14.60;99.90;;;;;;4383284;32;20202;-60
2021/06/24 01:53:14;;;;;;;9.80;4.03;;;14.50;99.90;;;;;;4378914;32;20165;-57
2021/06/24 01:55:42;;;;;;;7.27;4.23;;;14.50;99.90;;;;;;4385187;32;20171;-61
2021/06/24 01:58:16;;;;;;;7.00;3.50;;;14.50;99.90;;;;;;4380637;32;20279;-61
2021/06/24 02:00:43;;;;;;;7.53;3.37;;;14.50;99.90;;;;;;4385937;32;20605;-59
2021/06/24 02:03:11;;;;;;;6.30;3.03;;;14.40;99.90;;;;;;4377892;32;20161;-60
2021/06/24 02:05:38;;;;;;;7.40;3.70;;;14.40;99.90;;;;;;4379391;32;20215;-60
2021/06/24 02:08:05;;;;;;;8.80;3.47;;;14.40;99.90;;;;;;4383782;32;20160;-62
2021/06/24 02:10:32;;;;;;;7.27;3.50;;;14.40;99.90;;;;;;4386513;32;20484;-60
2021/06/24 02:12:59;;;;;;;5.20;2.97;;;14.40;99.90;;;;;;4385552;32;20188;-60
2021/06/24 02:15:28;;;;;;;4.37;3.17;;;14.40;99.90;;;;;;4379535;32;20167;-60
2021/06/24 02:17:55;;;;;;;6.73;3.67;;;14.40;99.90;;;;;;4377117;32;20179;-60
2021/06/24 02:20:22;;;;;;;5.10;3.57;;;14.40;99.90;;;;;;4386032;32;20160;-61
2021/06/24 02:22:49;;;;;;;7.07;4.17;;;14.50;99.90;;;;;;4384702;32;20576;-60
2021/06/24 02:25:16;;;;;;;4.93;3.23;;;14.40;99.90;;;;;;4382661;32;20181;-60
2021/06/24 02:27:43;;;;;;;8.10;4.10;;;14.30;99.90;;;;;;4392117;32;20148;-61
2021/06/24 02:30:12;;;;;;;6.37;3.53;;;14.30;99.90;;;;;;4386007;32;20187;-60
2021/06/24 02:32:41;;;;;;;7.30;3.73;;;14.20;99.90;;;;;;4384432;32;20160;-60
2021/06/24 02:35:11;;;;;;;8.70;4.10;;;14.30;99.90;;;;;;4379151;32;20172;-61
2021/06/24 02:37:41;;;;;;;9.07;4.13;;;14.30;99.90;;;;;;4379118;32;20162;-62
2021/06/24 02:40:10;;;;;;;10.07;3.67;;;14.30;99.90;;;;;;4385660;32;20155;-60
2021/06/24 02:42:37;;;;;;;9.27;4.43;;;14.30;99.90;;;;;;4384242;32;20160;-61
2021/06/24 02:45:06;;;;;;;8.03;3.70;;;14.30;99.90;;;;;;4390642;32;20201;-61
2021/06/24 02:47:33;;;;;;;6.93;3.40;;;14.20;99.90;;;;;;4380808;32;20163;-60
2021/06/24 02:50:09;;;;;;;5.70;3.50;;;14.20;99.90;;;;;;4375439;32;20358;-61
2021/06/24 02:52:39;;;;;;;6.30;4.17;;;14.30;99.90;;;;;;4372328;32;20739;-61
2021/06/24 02:55:16;;;;;;;7.63;3.47;;;14.20;99.90;;;;;;4371869;32;20385;-60
2021/06/24 02:57:50;;;;;;;7.47;3.87;;;14.10;99.90;;;;;;4376818;32;20163;-61
2021/06/24 03:00:19;;;;;;;6.13;3.90;;;14.10;99.90;;;;;;4375877;32;20153;-60
2021/06/24 03:02:52;;;;;;;11.00;4.03;;;14.10;99.90;;;;;;4378460;32;20201;-61
2021/06/24 03:05:20;;;;;;;7.80;4.03;;;14.10;99.90;;;;;;4375094;32;20236;-61
2021/06/24 03:07:48;;;;;;;5.47;3.93;;;14.10;99.90;;;;;;4382448;32;20167;-61
2021/06/24 03:10:17;;;;;;;6.47;4.50;;;14.10;99.90;;;;;;4385836;32;20157;-61
2021/06/24 03:12:44;;;;;;;5.23;3.70;;;14.00;99.90;;;;;;4378806;32;20215;-61
2021/06/24 03:15:12;;;;;;;7.57;4.17;;;14.10;99.90;;;;;;4376519;32;20196;-60
2021/06/24 03:17:39;;;;;;;8.03;3.63;;;14.00;99.90;;;;;;4378437;32;20187;-61
2021/06/24 03:20:09;;;;;;;8.03;4.00;;;14.00;99.90;;;;;;4387880;32;20165;-61
2021/06/24 03:22:37;;;;;;;11.53;4.83;;;14.00;99.90;;;;;;4377593;32;20157;-61
2021/06/24 03:25:05;;;;;;;6.10;4.00;;;14.00;99.90;;;;;;4379568;32;20206;-59
2021/06/24 03:27:32;;;;;;;8.10;3.57;;;14.10;99.90;;;;;;4379095;32;20163;-61
2021/06/24 03:30:00;;;;;;;4.93;3.87;;;14.10;99.90;;;;;;4383235;32;20584;-61
2021/06/24 03:32:28;;;;;;;5.47;3.57;;;14.00;99.90;;;;;;4390759;32;20283;-60
2021/06/24 03:34:55;;;;;;;8.00;3.40;;;14.00;99.90;;;;;;4382461;32;20198;-60
2021/06/24 03:37:22;;;;;;;8.00;3.60;;;14.10;99.90;;;;;;4386783;32;20156;-61
2021/06/24 03:39:52;;;;;;;7.80;3.33;;;14.10;99.90;;;;;;4376420;32;20164;-61
2021/06/24 03:42:19;;;;;;;7.73;3.70;;;14.10;99.90;;;;;;4380894;32;20182;-61
2021/06/24 03:44:46;;;;;;;7.70;3.33;;;14.10;99.90;;;;;;4382756;32;20573;-60
2021/06/24 03:47:13;;;;;;;6.97;3.47;;;14.20;99.90;;;;;;4376043;32;20160;-62
2021/06/24 03:49:39;;;;;;;5.93;3.60;;;14.10;99.90;;;;;;4387159;32;20239;-62
2021/06/24 03:52:08;;;;;;;4.40;3.40;;;14.20;99.90;;;;;;4379647;32;20584;-59
2021/06/24 03:54:35;;;;;;;4.67;3.70;;;14.10;99.90;;;;;;4383692;32;20243;-61
2021/06/24 03:57:04;;;;;;;8.87;4.37;;;14.20;99.90;;;;;;4377594;32;20168;-59
2021/06/24 03:59:30;;;;;;;5.77;3.77;;;14.10;99.90;;;;;;4387057;32;20536;-61
2021/06/24 04:01:57;;;;;;;6.63;3.57;;;14.10;99.90;;;;;;4378491;32;20156;-60
2021/06/24 04:04:24;;;;;;;4.83;3.47;;;14.10;99.90;;;;;;4384172;32;20222;-61
2021/06/24 04:06:51;;;;;;;8.73;3.43;;;14.10;99.90;;;;;;4381861;32;20580;-60
2021/06/24 04:09:18;;;;;;;6.30;3.70;;;14.20;99.90;;;;;;4385618;32;20180;-60
2021/06/24 04:11:45;;;;;;;9.13;4.20;;;14.20;99.90;;;;;;4377887;32;20176;-61
2021/06/24 04:14:13;;;;;;;7.27;4.30;;;14.20;99.90;;;;;;4384054;32;20163;-60
2021/06/24 04:16:40;;;;;;;11.60;4.70;;;14.20;99.90;;;;;;4382599;32;20580;-60
2021/06/24 04:19:07;;;;;;;6.40;3.77;;;14.30;99.90;;;;;;4379431;32;20246;-61
2021/06/24 04:21:35;;;;;;;7.33;4.67;;;14.30;99.90;;;;;;4378228;32;20154;-60
2021/06/24 04:24:02;;;;;;;6.03;4.37;;;14.30;99.90;;;;;;4378178;32;20160;-61
2021/06/24 04:26:29;;;;;;;9.03;4.10;;;14.30;99.90;;;;;;4387711;32;20182;-60
2021/06/24 04:28:56;;;;;;;10.60;4.10;;;14.40;99.90;;;;;;4389338;32;20587;-60
2021/06/24 04:31:24;;;;;;;6.97;4.00;;;14.40;99.90;;;;;;4390387;32;20151;-61
2021/06/24 04:33:51;;;;;;;6.43;3.57;;;14.40;99.90;;;;;;4379242;32;20167;-60
2021/06/24 04:36:20;;;;;;;6.63;3.83;;;14.40;99.90;;;;;;4384767;32;20190;-60
2021/06/24 04:38:47;;;;;;;8.00;4.20;;;14.50;99.90;;;;;;4374401;32;20471;-60
2021/06/24 04:41:13;;;;;;;7.07;4.60;;;14.50;99.90;;;;;;4379020;32;20191;-61
2021/06/24 04:43:40;;;;;;;7.07;3.97;;;14.50;99.90;;;;;;4376542;32;20448;-61
2021/06/24 04:46:07;;;;;;;8.20;4.20;;;14.60;99.90;;;;;;4379550;32;20161;-61
2021/06/24 04:48:35;;;;;;;4.20;3.63;;;14.50;99.90;;;;;;4378477;32;20190;-60
2021/06/24 04:51:02;;;;;;;7.70;4.03;;;14.60;99.90;;;;;;4379489;32;20188;-60
2021/06/24 04:53:29;;;;;;;7.57;4.87;;;14.60;99.90;;;;;;4378990;32;20206;-60
2021/06/24 04:55:56;;;;;;;5.47;3.30;;;14.50;99.90;;;;;;4379714;32;20220;-60
2021/06/24 04:58:28;;;;;;;8.67;3.57;;;14.60;99.90;;;;;;4379152;32;20186;-60
2021/06/24 05:00:57;;;;;;;6.63;3.90;;;14.60;99.90;;;;;;4383375;32;20204;-59
2021/06/24 05:03:24;;;;;;;6.23;3.80;;;14.70;99.90;;;;;;4376276;32;20157;-60
2021/06/24 05:05:54;;;;;;;7.47;3.97;;;14.90;99.90;;;;;;4385298;32;20148;-60
2021/06/24 05:08:22;;;;;;;4.13;3.60;;;15.00;99.90;;;;;;4380763;32;20160;-60
2021/06/24 05:10:50;;;;;;;7.07;3.60;;;15.00;99.90;;;;;;4382303;32;20223;-60
2021/06/24 05:13:17;;;;;;;5.13;3.93;;;15.10;99.90;;;;;;4377890;32;20572;-60
2021/06/24 05:15:45;;;;;;;8.80;3.33;;;15.10;99.90;;;;;;4385497;32;20531;-60
2021/06/24 05:18:13;;;;;;;5.53;3.80;;;15.20;99.90;;;;;;4376055;32;20208;-61
2021/06/24 05:20:41;;;;;;;8.97;3.40;;;15.20;99.90;;;;;;4378039;32;20243;-60
2021/06/24 05:23:13;;;;;;;6.80;3.40;;;15.30;99.90;;;;;;4378041;32;20187;-60
2021/06/24 05:25:40;;;;;;;5.17;3.00;;;15.30;99.90;;;;;;4377740;32;20156;-59
2021/06/24 05:28:07;;;;;;;6.73;3.77;;;15.30;99.90;;;;;;4381503;32;20176;-60
2021/06/24 05:30:35;;;;;;;5.57;3.53;;;15.30;99.90;;;;;;4385275;32;20175;-59
2021/06/24 05:33:02;;;;;;;6.63;3.70;;;15.40;99.90;;;;;;4379966;32;20156;-59
2021/06/24 05:35:29;;;;;;;5.17;3.80;;;15.40;99.90;;;;;;4385903;32;20239;-58
2021/06/24 05:37:56;;;;;;;6.63;3.93;;;15.40;99.90;;;;;;4381869;32;20179;-60
2021/06/24 05:40:25;;;;;;;7.57;4.67;;;15.40;99.90;;;;;;4379325;32;20176;-58
2021/06/24 05:42:52;;;;;;;5.83;5.30;;;15.40;99.90;;;;;;4379969;32;20227;-60
2021/06/24 05:45:23;;;;;;;8.30;4.40;;;15.40;99.90;;;;;;4386758;32;20179;-61
2021/06/24 05:47:50;;;;;;;4.97;3.93;;;15.30;99.90;;;;;;4384719;32;20186;-61
2021/06/24 05:50:17;;;;;;;6.60;4.23;;;15.40;99.90;;;;;;4384059;32;20257;-58
2021/06/24 05:52:47;;;;;;;6.53;4.10;;;15.40;99.90;;;;;;4380190;32;20201;-61
2021/06/24 05:55:14;;;;;;;7.77;4.40;;;15.50;99.90;;;;;;4381023;32;20584;-58
2021/06/24 05:57:44;;;;;;;7.73;4.07;;;15.70;99.90;;;;;;4381725;32;20176;-57
2021/06/24 06:00:13;;;;;;;6.80;4.43;;;15.80;99.90;;;;;;4381041;32;20581;-60
2021/06/24 06:02:40;;;;;;;12.00;3.93;;;16.00;99.90;;;;;;4380994;32;20427;-59
2021/06/24 06:05:08;;;;;;;7.73;4.07;;;16.20;99.90;;;;;;4381048;32;20578;-60
2021/06/24 06:07:34;;;;;;;5.47;3.33;;;16.40;99.90;;;;;;4381663;32;20608;-60
2021/06/24 06:10:01;;;;;;;12.43;4.67;;;16.50;99.90;;;;;;4378760;32;20216;-60
2021/06/24 06:12:30;;;;;;;8.87;4.33;;;16.70;99.90;;;;;;4378300;32;20584;-59
2021/06/24 06:14:59;;;;;;;4.97;3.53;;;16.90;99.90;;;;;;4382094;32;20577;-60
2021/06/24 06:17:25;;;;;;;4.57;3.57;;;17.10;99.90;;;;;;4381833;32;20250;-60
2021/06/24 06:19:52;;;;;;;5.87;3.53;;;17.30;99.90;;;;;;4382134;32;20187;-57
2021/06/24 06:22:19;;;;;;;10.10;4.07;;;17.60;99.90;;;;;;4382346;32;20160;-58
2021/06/24 06:24:46;;;;;;;5.83;3.70;;;17.80;99.90;;;;;;4382497;32;20182;-59
2021/06/24 06:27:13;;;;;;;10.37;4.00;;;17.90;99.90;;;;;;4385043;32;20175;-58
2021/06/24 06:29:43;;;;;;;13.80;4.13;;;18.00;99.70;;;;;;4381840;32;20152;-60
2021/06/24 06:32:11;;;;;;;6.70;3.57;;;18.30;99.70;;;;;;4380715;32;20239;-58
2021/06/24 06:34:38;;;;;;;9.47;3.77;;;18.50;98.10;;;;;;4383785;32;20165;-60
2021/06/24 06:37:05;;;;;;;7.47;4.03;;;18.60;98.30;;;;;;4381230;32;20198;-60
2021/06/24 06:39:34;;;;;;;8.43;3.30;;;18.50;98.60;;;;;;4381191;32;20520;-59
2021/06/24 06:42:01;;;;;;;7.47;3.30;;;18.90;98.10;;;;;;4381463;32;20156;-59
2021/06/24 06:44:28;;;;;;;5.47;3.57;;;18.80;97.90;;;;;;4379438;32;20710;-60
2021/06/24 06:46:55;;;;;;;7.93;3.20;;;19.30;97.50;;;;;;4380755;32;20640;-60
2021/06/24 06:49:24;;;;;;;7.73;2.60;;;19.10;97.20;;;;;;4378824;32;20180;-59
2021/06/24 06:51:51;;;;;;;6.30;2.90;;;19.40;96.80;;;;;;4379323;32;20160;-59
2021/06/24 06:54:18;;;;;;;7.13;2.83;;;19.60;96.20;;;;;;4381684;32;20228;-58
2021/06/24 06:56:46;;;;;;;5.87;2.30;;;19.60;95.40;;;;;;4380437;32;20618;-58
2021/06/24 06:59:14;;;;;;;4.77;2.57;;;19.70;95.10;;;;;;4381172;32;20212;-60
2021/06/24 07:01:41;;;;;;;4.87;2.60;;;19.60;94.80;;;;;;4376080;32;20198;-59
2021/06/24 07:04:08;;;;;;;4.90;2.13;;;19.40;95.00;;;;;;4385413;32;20192;-59
2021/06/24 07:06:37;;;;;;;5.13;2.70;;;19.90;95.00;;;;;;4381906;32;20160;-59
2021/06/24 07:09:05;;;;;;;4.53;2.67;;;20.00;94.00;;;;;;4379603;32;20156;-60
2021/06/24 07:11:34;;;;;;;6.87;2.63;;;20.20;93.70;;;;;;4381211;32;20171;-59
2021/06/24 07:14:00;;;;;;;6.80;3.07;;;20.50;93.70;;;;;;4380146;32;20574;-58
2021/06/24 07:16:30;;;;;;;5.13;1.90;;;20.70;92.50;;;;;;4379549;32;20183;-58
2021/06/24 07:18:57;;;;;;;3.73;2.60;;;20.60;91.70;;;;;;4378753;32;20183;-59
2021/06/24 07:21:25;;;;;;;3.97;2.00;;;20.60;92.00;;;;;;4383087;32;20646;-61
2021/06/24 07:23:53;;;;;;;4.27;1.97;;;20.90;92.30;;;;;;4383287;32;20457;-61
2021/06/24 07:26:20;;;;;;;5.07;1.90;;;21.10;91.70;;;;;;4382918;32;20223;-58
2021/06/24 07:28:47;;;;;;;6.03;2.10;;;21.00;91.30;;;;;;4383281;32;20165;-58
2021/06/24 07:31:13;;;;;;;6.10;2.27;;;21.30;91.40;;;;;;4381306;32;20584;-58
2021/06/24 07:33:40;;;;;;;3.23;2.37;;;21.40;91.60;;;;;;4379723;32;20179;-57
2021/06/24 07:36:07;;;;;;;5.23;2.23;;;21.30;91.40;;;;;;4381064;32;20573;-59
2021/06/24 07:38:34;;;;;;;2.70;2.07;;;21.20;91.60;;;;;;4382524;32;20156;-60
2021/06/24 07:41:02;;;;;;;4.93;2.20;;;21.50;91.90;;;;;;4380747;32;20160;-59
2021/06/24 07:43:29;;;;;;;5.57;2.60;;;21.90;91.20;;;;;;4378996;32;20227;-58
2021/06/24 07:45:56;;;;;;;6.87;2.87;;;22.10;90.50;;;;;;4381029;32;20155;-59
2021/06/24 07:48:24;;;;;;;5.10;2.67;;;21.80;90.00;;;;;;4384211;32;20620;-58
2021/06/24 07:50:51;;;;;;;5.23;2.60;;;21.60;90.80;;;;;;4380550;32;20211;-59
2021/06/24 07:53:18;;;;;;;4.67;2.57;;;21.70;90.40;;;;;;4382425;32;20188;-59
2021/06/24 07:55:46;;;;;;;3.17;2.43;;;21.30;90.20;;;;;;4377218;32;20195;-60
2021/06/24 07:58:14;;;;;;;8.20;2.73;;;21.00;90.60;;;;;;4379561;32;20503;-59
2021/06/24 08:00:41;;;;;;;5.23;2.27;;;21.10;91.30;;;;;;4378404;32;20198;-59
2021/06/24 08:03:11;;;;;;;6.30;2.40;;;21.30;91.10;;;;;;4380833;32;20196;-58
2021/06/24 08:05:38;;;;;;;3.40;2.60;;;21.40;90.10;;;;;;4379566;32;20174;-61
2021/06/24 08:08:05;;;;;;;7.73;2.37;;;21.50;90.20;;;;;;4380323;32;20156;-59
2021/06/24 08:10:32;;;;;;;4.33;2.50;;;21.50;90.10;;;;;;4387928;32;20190;-60
2021/06/24 08:12:59;;;;;;;6.50;2.40;;;21.40;90.30;;;;;;4388215;32;20701;-59
2021/06/24 08:15:28;;;;;;;8.43;2.63;;;21.40;90.40;;;;;;4378015;32;20223;-59
2021/06/24 08:17:56;;;;;;;10.20;3.03;;;21.70;89.90;;;;;;4380104;32;20184;-60
2021/06/24 08:20:23;;;;;;;7.97;2.97;;;21.60;88.80;;;;;;4380585;32;20231;-59
2021/06/24 08:22:55;;;;;;;5.13;2.53;;;22.10;88.50;;;;;;4376369;32;20200;-59
2021/06/24 08:25:23;;;;;;;4.23;2.67;;;21.70;88.70;;;;;;4377263;32;20164;-60
2021/06/24 08:27:50;;;;;;;3.50;2.30;;;22.20;88.10;;;;;;4377182;32;20213;-60
2021/06/24 08:30:19;;;;;;;7.20;3.03;;;22.70;87.90;;;;;;4376283;32;20510;-60
2021/06/24 08:32:48;;;;;;;5.60;3.17;;;22.20;87.60;;;;;;4385876;32;20164;-59
2021/06/24 08:35:16;;;;;;;5.10;2.20;;;23.00;87.20;;;;;;4380746;32;20186;-60
2021/06/24 08:37:43;;;;;;;5.30;2.30;;;23.10;85.90;;;;;;4378155;32;20230;-60
2021/06/24 08:40:12;;;;;;;4.20;2.23;;;23.60;84.60;;;;;;4383454;32;20192;-59
2021/06/24 08:42:40;;;;;;;3.63;2.60;;;23.60;84.10;;;;;;4376985;32;20238;-60
2021/06/24 08:45:11;;;;;;;5.00;2.53;;;23.20;82.70;;;;;;4376238;32;20160;-61
2021/06/24 08:47:40;;;;;;;7.77;2.87;;;22.80;85.10;;;;;;4375636;32;20224;-59
2021/06/24 08:50:10;;;;;;;6.60;3.07;;;22.40;86.80;;;;;;4385075;32;20174;-59
2021/06/24 08:52:36;;;;;;;4.50;2.73;;;22.50;85.90;;;;;;4384226;32;20160;-60
2021/06/24 08:55:07;;;;;;;4.73;2.60;;;22.50;85.60;;;;;;4378540;32;20152;-58
2021/06/24 08:57:34;;;;;;;5.03;2.60;;;22.60;86.60;;;;;;4388022;32;20160;-58
2021/06/24 09:00:01;;;;;;;4.57;2.77;;;22.50;84.00;;;;;;4380491;32;20156;-59
2021/06/24 09:02:38;;;;;;;7.87;3.23;;;22.20;86.30;;;;;;4375184;32;20171;-59
2021/06/24 09:05:08;;;;;;;6.63;3.27;;;22.10;86.40;;;;;;4378278;32;20160;-61
2021/06/24 09:07:48;;;;;;;7.50;3.40;;;22.00;87.50;;;;;;4383356;32;20165;-60
2021/06/24 09:10:15;;;;;;;8.97;3.10;;;22.20;87.70;;;;;;4381058;32;20182;-62
2021/06/24 09:12:51;;;;;;;4.77;2.93;;;22.40;86.60;;;;;;4383333;32;20565;-60
2021/06/24 09:15:18;;;;;;;8.97;3.73;;;22.60;86.00;;;;;;4385262;32;20164;-60
2021/06/24 09:17:46;;;;;;;3.40;3.03;;;22.20;85.20;;;;;;4382345;32;20181;-60
2021/06/24 09:20:35;;;;;;;6.17;3.50;;;21.60;86.80;;;;;;4382311;32;20187;-59
2021/06/24 09:23:10;;;;;;;6.07;3.63;;;22.20;87.90;;;;;;4377367;32;20164;-59
2021/06/24 09:25:40;;;;;;;7.40;3.40;;;22.60;86.80;;;;;;4386390;32;20160;-60
2021/06/24 09:28:07;;;;;;;7.90;3.67;;;22.70;84.80;;;;;;4372140;32;20157;-60
2021/06/24 09:30:36;;;;;;;6.47;3.27;;;22.50;85.70;;;;;;4376804;32;20541;-61
2021/06/24 09:33:09;;;;;;;3.57;2.77;;;22.60;88.10;;;;;;4376601;32;20156;-59
2021/06/24 09:36:01;;;;;;;8.40;3.23;;;22.70;86.30;;;;;;4375777;32;20173;-59
2021/06/24 09:38:29;;;;;;;7.97;3.73;;;23.00;85.80;;;;;;4377563;32;20628;-62
2021/06/24 09:41:20;;;;;;;5.20;3.40;;;23.00;85.10;;;;;;4376552;32;20306;-60
2021/06/24 09:43:47;;;;;;;4.40;2.97;;;22.70;84.70;;;;;;4361536;32;20204;-61
2021/06/24 09:46:16;;;;;;;6.00;2.77;;;22.60;86.60;;;;;;4382654;32;20160;-61
2021/06/24 09:48:44;;;;;;;5.50;3.37;;;22.40;87.00;;;;;;4376282;32;20224;-61
2021/06/24 09:51:18;;;;;;;5.47;3.33;;;22.60;86.20;;;;;;4381719;32;20561;-60
2021/06/24 09:53:50;;;;;;;8.20;3.50;;;22.60;85.30;;;;;;4382250;32;20206;-61
2021/06/24 09:56:35;;;;;;;7.00;3.23;;;22.60;86.50;;;;;;4380077;32;20522;-60
2021/06/24 09:59:04;;;;;;;7.67;3.57;;;22.10;86.30;;;;;;4378261;32;20231;-59
2021/06/24 10:01:36;;;;;;;4.70;3.00;;;22.20;86.40;;;;;;4385109;32;20187;-59
2021/06/24 10:04:06;;;;;;;7.40;3.37;;;22.00;87.90;;;;;;4381294;32;20210;-61
2021/06/24 10:06:34;;;;;;;7.60;3.57;;;22.20;87.30;;;;;;4384351;32;20657;-62
2021/06/24 10:09:01;;;;;;;9.50;3.60;;;22.20;85.90;;;;;;4374135;32;20173;-59
2021/06/24 10:11:27;;;;;;;4.50;3.43;;;22.20;85.60;;;;;;4377786;32;20454;-60
2021/06/24 10:13:55;;;;;;;6.90;3.60;;;22.50;86.50;;;;;;4382951;32;20160;-60
2021/06/24 10:16:26;;;;;;;4.10;3.47;;;23.00;84.70;;;;;;4379220;32;20231;-60
2021/06/24 10:18:54;;;;;;;5.97;3.87;;;23.20;82.70;;;;;;4377905;32;20609;-59
2021/06/24 10:21:23;;;;;;;7.37;3.13;;;23.70;82.30;;;;;;4376845;32;20255;-61
2021/06/24 10:23:55;;;;;;;4.40;3.30;;;24.10;80.80;;;;;;4384008;32;20234;-59
2021/06/24 10:26:23;;;;;;;6.13;3.43;;;24.50;80.90;;;;;;4386699;32;20230;-59
2021/06/24 10:29:09;;;;;;;6.33;3.97;;;24.80;80.70;;;;;;4379319;32;20585;-60
2021/06/24 10:31:37;;;;;;;6.03;3.60;;;24.80;78.60;;;;;;4384224;32;20155;-61
2021/06/24 10:34:05;;;;;;;8.37;4.37;;;24.20;80.70;;;;;;4385918;32;20160;-61
2021/06/24 10:36:35;;;;;;;6.90;3.70;;;24.70;80.60;;;;;;4380383;32;20215;-59
2021/06/24 10:39:07;;;;;;;9.23;3.80;;;24.50;80.80;;;;;;4384783;32;20148;-60
2021/06/24 10:42:06;;;;;;;8.33;4.53;;;24.50;77.60;;;;;;4378031;32;20163;-61
2021/06/24 10:44:53;;;;;;;7.03;3.40;;;24.50;78.30;;;;;;4355529;32;20145;-59
2021/06/24 10:47:44;;;;;;;5.60;4.10;;;24.50;78.80;;;;;;4349920;33;20581;-60
2021/06/24 10:50:45;;;;;;;5.33;3.70;;;24.70;78.60;;;;;;4348042;32;20670;-60
2021/06/24 10:53:48;;;;;;;5.93;4.30;;;24.40;79.20;;;;;;4349978;33;20172;-60
2021/06/24 10:56:45;;;;;;;5.33;4.83;;;22.10;82.50;;;;;;4323510;33;20161;-61
2021/06/24 10:59:32;;;;;;;13.37;5.80;;;21.40;85.70;;;;;;4324264;33;20566;-60
2021/06/24 11:02:07;;;;;;;6.13;4.40;;;21.00;87.10;;;;;;4331034;33;20177;-60
2021/06/24 11:04:39;;;;;;;10.80;4.07;;;21.70;88.80;;;;;;4325381;33;20167;-61
2021/06/24 11:07:25;;;;;;;9.87;4.70;;;22.50;88.10;;;;;;4323936;33;20179;-61
2021/06/24 11:10:21;;;;;;;5.27;3.57;;;23.00;85.30;;;;;;4319809;33;20184;-60
2021/06/24 11:12:55;;;;;;;6.87;4.30;;;23.30;84.00;;;;;;4271458;33;20162;-60
2021/06/24 11:15:47;;;;;;;7.83;4.10;;;22.10;86.40;;;;;;4270381;33;20290;-60
2021/06/24 11:18:47;;;;;;;8.57;3.90;;;23.10;85.60;;;;;;4247227;33;20257;-60
2021/06/24 11:21:22;;;;;;;8.90;4.87;;;24.00;83.40;;;;;;4233584;33;20230;-61
2021/06/24 11:23:52;;;;;;;4.43;3.33;;;24.40;80.90;;;;;;4239070;33;20352;-60
2021/06/24 11:26:44;;;;;;;6.27;4.47;;;24.80;81.50;;;;;;4238707;33;20203;-62
2021/06/24 11:29:24;;;;;;;10.33;5.10;;;25.30;80.50;;;;;;4229516;33;20159;-59
2021/06/24 11:31:56;;;;;;;5.93;4.17;;;25.40;77.50;;;;;;4229069;33;20565;-60
2021/06/24 11:34:33;;;;;;;6.62;4.05;;;25.60;78.20;;;;;;4284341;32;2160393;-61
2021/06/24 11:37:05;;;;;;;4.05;3.47;;;25.80;77.70;;;;;;4380821;32;20222;-61
2021/06/24 11:39:35;;;;;;;3.90;3.60;;;26.10;78.10;;;;;;4382524;32;20171;-61
2021/06/24 11:42:08;;;;;;;6.80;4.30;;;26.10;75.40;;;;;;4381780;32;20157;-61
2021/06/24 11:44:42;;;;;;;6.90;4.83;;;25.00;76.20;;;;;;4382680;32;20564;-60
2021/06/24 11:47:12;;;;;;;5.95;4.43;;;24.40;77.80;;;;;;4380062;32;20180;-62
2021/06/24 12:01:14;;;;;;;5.68;3.75;;;25.20;79.00;;;;;;4375932;32;20614;-62
2021/06/24 12:03:46;;;;;;;10.05;4.62;;;25.20;79.00;;;;;;4384100;32;20183;-61
2021/06/24 12:06:13;;;;;;;5.05;3.28;;;24.00;78.00;;;;;;4379838;32;20175;-62
2021/06/24 12:08:40;;;;;;;6.27;4.00;;;24.10;80.20;;;;;;4377636;32;20151;-62
2021/06/24 12:11:09;;;;;;;8.07;3.75;;;24.20;81.30;;;;;;4378745;32;20221;-61
2021/06/24 12:13:37;;;;;;;6.77;4.07;;;23.90;81.40;;;;;;4379780;32;20238;-61
2021/06/24 12:16:06;;;;;;;8.43;4.50;;;23.90;81.90;;;;;;4375566;32;20204;-61
2021/06/24 12:18:38;;;;;;;5.27;3.90;;;23.40;80.90;;;;;;4379071;32;20156;-61
2021/06/24 12:21:07;;;;;;;4.67;3.37;;;23.10;82.70;;;;;;4383231;32;20296;-63
2021/06/24 12:23:40;;;;;;;5.00;4.23;;;23.00;83.90;;;;;;4368408;32;20271;-59
2021/06/24 12:26:07;;;;;;;6.00;4.00;;;22.70;84.80;;;;;;4380113;32;20160;-60
2021/06/24 12:28:34;;;;;;;7.47;4.17;;;22.90;84.10;;;;;;4384634;32;20156;-60
2021/06/24 12:31:02;;;;;;;7.70;3.80;;;22.40;84.10;;;;;;4381813;32;20179;-60
2021/06/24 12:33:30;;;;;;;6.10;4.40;;;23.20;84.50;;;;;;4378694;32;20176;-60
2021/06/24 12:35:57;;;;;;;7.70;4.83;;;23.50;81.30;;;;;;4378786;32;20175;-61
2021/06/24 12:38:28;;;;;;;6.13;4.03;;;22.70;81.90;;;;;;4380692;32;20160;-61
2021/06/24 12:40:59;;;;;;;8.47;4.63;;;23.30;83.40;;;;;;4383825;32;20233;-63
2021/06/24 12:43:28;;;;;;;5.77;3.37;;;23.80;83.40;;;;;;4382862;32;20160;-62
2021/06/24 12:45:57;;;;;;;6.10;3.53;;;24.00;83.00;;;;;;4386286;32;20205;-61
2021/06/24 12:48:26;;;;;;;4.47;3.83;;;23.70;82.70;;;;;;4375503;32;20214;-61
2021/06/24 12:50:54;;;;;;;7.93;3.73;;;23.80;82.20;;;;;;4379108;32;20195;-61
2021/06/24 12:53:32;;;;;;;3.83;3.20;;;23.60;83.60;;;;;;4383014;32;20204;-60
2021/06/24 12:56:00;;;;;;;7.90;3.83;;;23.40;83.80;;;;;;4380980;32;20160;-61
2021/06/24 12:58:37;;;;;;;5.47;3.37;;;23.20;83.80;;;;;;4387851;32;20581;-61
2021/06/24 13:01:11;;;;;;;10.30;4.10;;;23.10;83.50;;;;;;4385195;32;20179;-59
2021/06/24 13:03:47;;;;;;;5.97;3.63;;;23.10;86.40;;;;;;4381457;32;20160;-61
2021/06/24 13:06:19;;;;;;;5.87;3.57;;;23.00;83.20;;;;;;4380085;32;20345;-61
2021/06/24 13:08:56;;;;;;;4.27;3.60;;;22.70;84.90;;;;;;4380943;32;20151;-60
2021/06/24 13:11:25;;;;;;;6.13;4.00;;;22.80;85.20;;;;;;4379325;32;20227;-62